createdAt,value
2019-02-18T00:03:06.945Z,-0.50
2019-02-18T00:08:12.818Z,-0.50
2019-02-18T00:13:18.115Z,-0.50
2019-02-18T00:18:24.345Z,-0.70
2019-02-18T00:23:29.660Z,-0.70
2019-02-18T00:28:36.861Z,-0.80
2019-02-18T00:33:41.898Z,-0.80
2019-02-18T00:38:47.209Z,-0.90
2019-02-18T00:43:52.511Z,-1.00
2019-02-18T00:48:58.440Z,-0.90
2019-02-18T00:54:03.807Z,-0.90
2019-02-18T00:59:09.119Z,-1.00
2019-02-18T01:04:14.526Z,-1.10
2019-02-18T01:09:19.767Z,-1.10
2019-02-18T01:14:25.058Z,-1.20
2019-02-18T01:19:30.368Z,-1.20
2019-02-18T01:24:35.676Z,-1.20
2019-02-18T01:29:40.978Z,-1.20
2019-02-18T01:34:47.259Z,-1.30
2019-02-18T01:39:52.616Z,-1.40
2019-02-18T01:50:02.540Z,-1.40
2019-02-18T01:55:08.269Z,-1.40
2019-02-18T02:00:15.296Z,-1.40
2019-02-18T02:05:20.667Z,-1.50
2019-02-18T02:10:26.619Z,-1.60
2019-02-18T02:15:31.919Z,-1.50
2019-02-18T02:20:37.211Z,-1.60
2019-02-18T02:25:42.491Z,-1.50
2019-02-18T02:35:52.474Z,-1.40
2019-02-18T02:46:02.404Z,-1.20
2019-02-18T02:51:07.729Z,-1.20
2019-02-18T02:56:13.032Z,-1.20
2019-02-18T03:01:18.361Z,-1.20
2019-02-18T03:06:23.687Z,-1.20
2019-02-18T03:11:30.176Z,-1.10
2019-02-18T03:16:35.476Z,-1.00
2019-02-18T03:21:40.840Z,-1.00
2019-02-18T03:26:46.152Z,-1.30
2019-02-18T03:31:51.475Z,-1.40
2019-02-18T03:36:56.868Z,-1.60
2019-02-18T03:42:02.175Z,-1.70
2019-02-18T03:47:07.727Z,-1.70
2019-02-18T03:52:13.156Z,-1.80
2019-02-18T03:57:18.470Z,-1.80
2019-02-18T04:02:23.776Z,-1.90
2019-02-18T04:07:29.110Z,-1.90
2019-02-18T04:12:34.443Z,-1.90
2019-02-18T04:17:39.833Z,-2.00
2019-02-18T04:22:45.151Z,-2.00
2019-02-18T04:27:50.578Z,-2.20
2019-02-18T04:38:00.433Z,-2.20
2019-02-18T04:43:05.754Z,-2.30
2019-02-18T04:48:11.066Z,-2.40
2019-02-18T04:58:21.064Z,-2.50
2019-02-18T05:03:26.397Z,-2.50
2019-02-18T05:08:31.723Z,-2.40
2019-02-18T05:13:37.165Z,-2.40
2019-02-18T05:18:42.460Z,-2.50
2019-02-18T05:23:47.771Z,-2.60
2019-02-18T05:28:53.079Z,-2.60
2019-02-18T05:33:58.428Z,-2.60
2019-02-18T05:39:16.935Z,-2.70
2019-02-18T05:44:13.529Z,-2.70
2019-02-18T05:49:19.087Z,-2.80
2019-02-18T05:54:24.480Z,-2.70
2019-02-18T05:59:29.997Z,-2.70
2019-02-18T06:04:35.335Z,-2.70
2019-02-18T06:09:41.727Z,-2.80
2019-02-18T06:14:47.063Z,-2.80
2019-02-18T06:19:52.371Z,-2.90
2019-02-18T06:24:57.680Z,-2.90
2019-02-18T06:30:03.021Z,-2.80
2019-02-18T06:35:08.462Z,-2.70
2019-02-18T06:40:13.789Z,-2.80
2019-02-18T06:45:38.037Z,-2.80
2019-02-18T06:50:43.426Z,-2.50
2019-02-18T06:55:48.745Z,-2.50
2019-02-18T07:01:17.223Z,-2.40
2019-02-18T07:06:53.544Z,-2.20
2019-02-18T07:12:07.590Z,-2.10
2019-02-18T07:17:12.906Z,-1.90
2019-02-18T07:22:18.245Z,-1.70
2019-02-18T07:27:23.755Z,-1.50
2019-02-18T07:32:29.106Z,-1.30
2019-02-18T07:37:35.496Z,-1.00
2019-02-18T07:42:40.809Z,-0.80
2019-02-18T07:47:46.130Z,-0.60
2019-02-18T07:52:51.485Z,-0.40
2019-02-18T07:57:56.787Z,-0.20
2019-02-18T08:03:02.091Z,0.30
2019-02-18T08:08:07.434Z,1.20
2019-02-18T08:13:12.748Z,1.80
2019-02-18T08:18:18.063Z,2.20
2019-02-18T08:23:23.367Z,2.70
2019-02-18T08:28:28.672Z,3.10
2019-02-18T08:33:33.987Z,3.40
2019-02-18T08:38:39.295Z,3.60
2019-02-18T08:43:44.606Z,4.00
2019-02-18T08:48:49.907Z,4.30
2019-02-18T08:53:55.273Z,4.70
2019-02-18T08:59:00.576Z,4.80
2019-02-18T09:04:05.892Z,4.60
2019-02-18T09:09:11.300Z,4.80
2019-02-18T09:14:16.612Z,4.70
2019-02-18T09:19:22.247Z,4.80
2019-02-18T09:24:35.853Z,5.20
2019-02-18T09:29:41.451Z,5.10
2019-02-18T09:34:46.747Z,4.70
2019-02-18T09:39:52.071Z,4.20
2019-02-18T09:44:57.375Z,4.30
2019-02-18T09:50:02.686Z,4.60
2019-02-18T09:55:09.059Z,4.60
2019-02-18T10:00:16.980Z,4.70
2019-02-18T10:05:22.395Z,5.40
2019-02-18T10:10:28.140Z,6.20
2019-02-18T10:15:33.527Z,6.80
2019-02-18T10:20:38.837Z,7.10
2019-02-18T10:25:44.147Z,6.80
2019-02-18T10:30:50.370Z,6.80
2019-02-18T10:35:55.700Z,7.60
2019-02-18T10:41:06.923Z,8.70
2019-02-18T10:46:08.007Z,8.80
2019-02-18T10:51:13.392Z,9.40
2019-02-18T10:56:18.721Z,10.20
2019-02-18T11:01:24.269Z,11.00
2019-02-18T11:06:29.628Z,11.20
2019-02-18T11:11:34.927Z,11.30
2019-02-18T11:16:40.254Z,11.80
2019-02-18T11:21:45.579Z,12.40
2019-02-18T11:26:50.894Z,12.00
2019-02-18T11:31:56.207Z,12.30
2019-02-18T11:37:01.527Z,12.20
2019-02-18T11:42:06.966Z,12.70
2019-02-18T11:47:12.397Z,11.40
2019-02-18T11:52:18.077Z,11.50
2019-02-18T11:57:23.506Z,11.70
2019-02-18T12:02:28.816Z,11.30
2019-02-18T12:07:34.124Z,11.40
2019-02-18T12:12:39.540Z,11.60
2019-02-18T12:17:44.852Z,11.50
2019-02-18T12:22:50.177Z,11.70
2019-02-18T12:27:55.522Z,12.00
2019-02-18T12:33:01.642Z,12.10
2019-02-18T12:38:07.146Z,12.00
2019-02-18T12:43:12.520Z,11.90
2019-02-18T12:48:17.840Z,11.90
2019-02-18T12:53:23.171Z,12.30
2019-02-18T12:58:28.541Z,12.80
2019-02-18T13:03:33.837Z,12.60
2019-02-18T13:08:39.144Z,12.60
2019-02-18T13:13:44.500Z,13.20
2019-02-18T13:18:50.012Z,13.90
2019-02-18T13:23:55.323Z,14.20
2019-02-18T13:29:00.660Z,14.70
2019-02-18T13:34:07.051Z,15.10
2019-02-18T13:39:12.498Z,15.10
2019-02-18T13:44:17.921Z,15.00
2019-02-18T13:49:23.274Z,14.50
2019-02-18T13:54:28.657Z,13.80
2019-02-18T13:59:34.080Z,14.10
2019-02-18T14:04:39.656Z,14.00
2019-02-18T14:09:44.976Z,13.70
2019-02-18T14:14:50.863Z,13.70
2019-02-18T14:19:56.279Z,13.40
2019-02-18T14:25:01.602Z,13.50
2019-02-18T14:30:09.073Z,13.70
2019-02-18T14:35:15.970Z,13.80
2019-02-18T14:40:22.938Z,13.60
2019-02-18T14:45:28.248Z,14.00
2019-02-18T14:50:33.579Z,14.20
2019-02-18T14:55:38.884Z,14.40
2019-02-18T15:00:44.668Z,14.50
2019-02-18T15:05:50.012Z,14.90
2019-02-18T15:10:55.393Z,15.60
2019-02-18T15:16:01.108Z,16.00
2019-02-18T15:21:06.428Z,16.70
2019-02-18T15:26:11.945Z,16.80
2019-02-18T15:31:17.292Z,16.70
2019-02-18T15:36:22.639Z,16.40
2019-02-18T15:41:27.947Z,16.00
2019-02-18T15:46:33.329Z,15.00
2019-02-18T15:51:38.853Z,14.60
2019-02-18T15:56:44.206Z,13.80
2019-02-18T16:01:49.545Z,13.10
2019-02-18T16:06:55.133Z,13.10
2019-02-18T16:12:01.021Z,12.50
2019-02-18T16:17:06.945Z,11.70
2019-02-18T16:22:12.392Z,10.80
2019-02-18T16:27:18.097Z,10.20
2019-02-18T16:32:23.699Z,9.60
2019-02-18T16:37:29.439Z,9.10
2019-02-18T16:42:34.753Z,8.80
2019-02-18T16:47:41.239Z,8.50
2019-02-18T16:52:46.862Z,8.40
2019-02-18T16:57:52.258Z,8.20
2019-02-18T17:02:57.835Z,7.90
2019-02-18T17:08:03.229Z,7.60
2019-02-18T17:13:09.120Z,7.10
2019-02-18T17:18:15.867Z,6.80
2019-02-18T17:23:21.763Z,6.60
2019-02-18T17:28:30.165Z,6.40
2019-02-18T17:33:36.229Z,6.40
2019-02-18T17:38:41.624Z,6.00
2019-02-18T17:43:47.059Z,5.70
2019-02-18T17:48:52.389Z,5.50
2019-02-18T17:53:57.826Z,5.30
2019-02-18T17:59:03.162Z,5.10
2019-02-18T18:04:08.551Z,5.00
2019-02-18T18:09:14.086Z,4.80
2019-02-18T18:14:19.478Z,4.30
2019-02-18T18:19:24.801Z,4.10
2019-02-18T18:24:30.128Z,4.20
2019-02-18T18:29:35.437Z,4.10
2019-02-18T18:34:40.837Z,4.20
2019-02-18T18:39:46.215Z,3.90
2019-02-18T18:44:53.113Z,3.80
2019-02-18T18:49:58.871Z,3.70
2019-02-18T18:55:04.597Z,3.50
2019-02-18T19:00:13.669Z,3.40
2019-02-18T19:05:19.311Z,3.30
2019-02-18T19:10:24.751Z,3.20
2019-02-18T19:15:30.574Z,3.00
2019-02-18T19:20:36.349Z,2.90
2019-02-18T19:25:41.799Z,2.90
2019-02-18T19:30:47.691Z,2.90
2019-02-18T19:35:56.219Z,2.80
2019-02-18T19:41:03.054Z,2.70
2019-02-18T19:46:09.317Z,2.50
2019-02-18T19:51:15.648Z,2.30
2019-02-18T19:56:21.142Z,2.10
2019-02-18T20:01:26.539Z,2.00
2019-02-18T20:06:32.093Z,2.10
2019-02-18T20:11:37.650Z,2.60
2019-02-18T20:16:43.926Z,1.90
2019-02-18T20:21:49.492Z,1.60
2019-02-18T20:26:55.091Z,1.80
2019-02-18T20:32:00.458Z,1.80
2019-02-18T20:37:05.841Z,1.70
2019-02-18T20:42:11.262Z,1.60
2019-02-18T20:47:16.694Z,1.50
2019-02-18T20:52:22.193Z,1.40
2019-02-18T20:57:28.576Z,1.20
2019-02-18T21:02:34.283Z,1.20
2019-02-18T21:07:39.986Z,1.20
2019-02-18T21:12:46.028Z,1.20
2019-02-18T21:17:53.000Z,1.20
2019-02-18T21:22:59.810Z,1.20
2019-02-18T21:28:07.758Z,1.20
2019-02-18T21:33:13.554Z,1.10
2019-02-18T21:38:19.080Z,0.90
2019-02-18T21:43:28.007Z,0.70
2019-02-18T21:48:35.099Z,0.90
2019-02-18T21:53:42.350Z,0.80
2019-02-18T21:58:49.351Z,0.80
2019-02-18T22:03:57.716Z,0.70
2019-02-18T22:09:07.290Z,0.50
2019-02-18T22:14:16.224Z,0.70
2019-02-18T22:19:23.765Z,0.70
2019-02-18T22:24:29.963Z,0.80
2019-02-18T22:29:36.771Z,0.70
2019-02-18T22:34:43.445Z,0.60
2019-02-18T22:39:49.545Z,0.60
2019-02-18T22:44:55.027Z,0.60
2019-02-18T22:50:00.412Z,0.50
2019-02-18T22:55:06.251Z,0.40
2019-02-18T23:00:29.854Z,0.30
2019-02-18T23:05:37.105Z,0.20
2019-02-18T23:10:42.444Z,0.00
2019-02-18T23:15:47.812Z,0.00
2019-02-18T23:20:53.210Z,-0.10
2019-02-18T23:25:58.659Z,0.00
2019-02-18T23:31:04.053Z,-0.10
2019-02-18T23:36:09.394Z,-0.10
2019-02-18T23:41:14.729Z,-0.20
2019-02-18T23:46:20.048Z,-0.20
2019-02-18T23:51:25.438Z,-0.30
2019-02-18T23:56:30.771Z,-0.40
